Latest Weather Observations for Toowoomba

IDQ60801

Issued at 1:21 pm EST Friday 16 November 2018 (issued every 10 minutes, with the page automatically refreshed every 10 minutes)

About weather observations | Map of weather stations | Latest weather observations for QLD | Other Formats
Station Details ID: 041529 Name: TOOWOOMBA AIRPORT Lat: -27.54 Lon: 151.91 Height: 640.9 m
Data from the previous 72 hours. | See also: Recent months at Toowoomba
Date/Time
EST
Temp
°C
App
Temp
°C
Dew
Point
°C
Rel
Hum
%
Delta-T
°C
Wind Press
QNH
hPa
Press
MSL
hPa
Rain since
9am
mm
Dir  Spd
km/h
Gust
km/h
Spd
kts
Gust
kts
16/01:00pm 27.3 26.5 14.0 44 8.1 N 11 22 6 12 1017.5 1014.5 0.0
16/12:30pm 26.9 26.9 15.3 49 7.2 ENE 9 19 5 10 1018.1 1015.2 0.0
16/12:00pm 26.6 25.3 14.7 48 7.3 ESE 15 20 8 11 1018.6 1015.6 0.0
16/11:30am 26.8 26.3 15.8 51 6.9 NE 13 20 7 11 1019.2 1016.2 0.0
16/11:00am 25.4 24.5 14.8 52 6.5 ESE 13 22 7 12 1019.6 1016.7 0.0
16/10:30am 25.7 25.6 16.0 55 6.1 ENE 11 19 6 10 1020.0 1017.1 0.0
16/10:00am 24.1 23.4 15.3 58 5.4 ENE 13 24 7 13 1020.5 1017.5 0.0
16/09:30am 23.3 21.9 15.6 62 4.8 ENE 17 22 9 12 1020.5 1017.5 0.0
16/09:00am 21.8 19.8 14.9 65 4.2 ENE 19 24 10 13 1020.4 1017.4 0.0
16/08:30am 21.5 19.6 15.3 68 3.8 ENE 19 26 10 14 1020.4 1017.4 0.0
16/08:00am 20.8 19.2 16.4 76 2.7 ENE 20 28 11 15 1020.5 1017.5 0.0
16/07:30am 19.6 17.8 15.9 79 2.3 ENE 20 26 11 14 1020.4 1017.4 0.0
16/07:00am 18.9 16.7 16.0 83 1.8 E 22 26 12 14 1020.1 1017.2 0.0
16/06:30am 18.0 15.5 16.2 89 1.1 E 24 30 13 16 1019.8 1016.9 0.0
16/06:00am 16.9 14.5 16.4 97 0.3 E 24 32 13 17 1019.8 1016.9 0.0
16/05:30am 16.6 14.2 16.4 99 0.1 E 24 35 13 19 1019.6 1016.7 0.0
16/05:15am 16.6 13.8 16.4 99 0.1 E 26 35 14 19 1019.5 1016.5 0.0
16/05:00am 16.6 13.4 16.4 99 0.1 E 28 37 15 20 1019.4 1016.4 0.0
16/04:40am 16.6 13.8 16.4 99 0.1 E 26 35 14 19 1019.1 1016.1 0.0
16/04:30am 16.7 14.0 16.5 99 0.1 E 26 35 14 19 1019.1 1016.1 0.0
16/04:00am 16.6 14.2 16.4 99 0.1 E 24 32 13 17 1018.8 1015.8 0.0
16/03:30am 16.7 14.3 16.5 99 0.1 E 24 32 13 17 1018.4 1015.5 0.0
16/03:00am 16.8 14.1 16.6 99 0.1 E 26 32 14 17 1018.4 1015.5 0.0
16/02:45am 16.9 14.6 16.6 98 0.2 E 24 30 13 16 1018.4 1015.5 0.0
16/02:30am 17.0 14.3 16.5 97 0.3 E 26 32 14 17 1018.6 1015.6 0.0
16/02:00am 17.1 14.0 16.5 96 0.4 E 28 37 15 20 1018.7 1015.7 0.0
16/01:52am 17.2 14.0 16.4 95 0.5 E 28 35 15 19 1018.7 1015.7 0.0
16/01:30am 17.2 14.0 16.4 95 0.5 E 28 35 15 19 1019.0 1016.0 0.0
16/01:00am 17.2 14.0 16.2 94 0.6 E 28 35 15 19 1019.1 1016.1 0.0
16/12:30am 17.4 13.8 16.3 93 0.7 E 30 35 16 19 1019.6 1016.7 0.0
16/12:00am 17.6 14.3 16.1 91 0.9 E 28 37 15 20 1019.8 1016.9 0.0
 
Date/Time
EST
Temp
°C
App
Temp
°C
Dew
Point
°C
Rel
Hum
%
Delta-T
°C
Wind Press
QNH
hPa
Press
MSL
hPa
Rain since
9am
mm
Dir  Spd
km/h
Gust
km/h
Spd
kts
Gust
kts
15/11:30pm 18.1 15.9 15.9 87 1.3 E 22 30 12 16 1020.0 1017.1 0.0
15/11:00pm 18.6 16.3 15.7 83 1.8 E 22 28 12 15 1020.3 1017.3 0.0
15/10:30pm 19.0 15.9 15.7 81 2.0 E 26 33 14 18 1020.1 1017.2 0.0
15/10:00pm 19.2 16.5 15.5 79 2.2 E 24 30 13 16 1020.0 1017.1 0.0
15/09:30pm 19.8 16.4 15.7 77 2.5 E 28 33 15 18 1020.1 1017.2 0.0
15/09:00pm 21.1 17.9 15.2 69 3.6 ESE 26 35 14 19 1020.0 1017.1 0.0
15/08:30pm 21.8 19.6 14.9 65 4.2 E 20 24 11 13 1019.5 1016.5 0.0
15/08:00pm 23.0 20.6 12.6 52 6.1 E 17 20 9 11 1019.3 1016.3 0.0
15/07:30pm 22.7 21.4 12.6 53 5.9 ENE 11 15 6 8 1019.0 1016.0 0.0
15/07:00pm 23.3 22.0 12.6 51 6.3 ENE 11 15 6 8 1018.9 1015.9 0.0
15/06:30pm 23.9 21.8 12.5 49 6.7 ENE 15 17 8 9 1018.8 1015.8 0.0
15/06:00pm 24.7 22.7 12.6 47 7.2 ENE 15 20 8 11 1018.4 1015.5 0.0
15/05:30pm 25.7 23.6 12.5 44 7.8 ENE 15 20 8 11 1018.0 1015.0 0.0
15/05:00pm 26.1 23.7 12.5 42 8.1 NE 17 20 9 11 1017.6 1014.6 0.0
15/04:30pm 26.4 24.0 12.8 43 8.1 ENE 17 22 9 12 1017.7 1014.7 0.0
15/04:00pm 26.8 24.8 12.8 42 8.4 ENE 15 20 8 11 1017.7 1014.7 0.0
15/03:30pm 26.1 24.0 12.5 42 8.1 NE 15 24 8 13 1017.9 1014.9 0.0
15/03:00pm 26.5 25.6 10.6 37 9.2 NNE 6 11 3 6 1017.8 1014.8 0.0
15/02:30pm 27.3 25.1 10.9 36 9.6 N 13 22 7 12 1018.1 1015.2 0.0
15/02:00pm 26.9 25.3 11.4 38 9.1 ESE 11 15 6 8 1018.6 1015.6 0.0
15/01:30pm 28.3 27.7 12.2 37 9.6 SE 7 11 4 6 1019.0 1016.0 0.0
15/01:00pm 25.9 23.9 11.6 40 8.4 SE 13 20 7 11 1019.4 1016.4 0.0
15/12:30pm 25.9 25.2 14.4 49 7.0 ESE 11 15 6 8 1019.7 1016.8 0.0
15/12:00pm 24.3 24.1 13.5 51 6.5 NE 7 13 4 7 1020.4 1017.4 0.0
15/11:30am 24.1 23.1 13.3 51 6.5 N 11 22 6 12 1020.7 1017.7 0.0
15/11:00am 24.2 24.1 13.4 51 6.5 NE 6 13 3 7 1021.0 1018.1 0.0
15/10:30am 24.6 24.0 13.5 50 6.7 S 9 19 5 10 1021.4 1018.5 0.0
15/10:00am 24.3 23.5 14.1 53 6.2 NNE 11 17 6 9 1021.6 1018.7 0.0
15/09:30am 23.3 22.8 13.8 55 5.7 NE 9 15 5 8 1022.0 1019.0 0.0
15/09:00am 22.4 23.1 16.0 67 4.0 NE 7 15 4 8 1022.0 1019.0 0.0
15/08:30am 21.4 21.5 15.5 69 3.6 NE 9 17 5 9 1021.9 1018.9 0.0
15/08:00am 20.0 19.0 14.6 71 3.2 NNE 13 19 7 10 1021.6 1018.7 0.0
15/07:30am 19.5 18.3 15.0 75 2.7 NE 15 20 8 11 1021.5 1018.6 0.0
15/07:00am 19.0 18.2 15.1 78 2.3 NE 13 19 7 10 1021.4 1018.5 0.0
15/06:30am 17.8 17.0 16.0 89 1.1 ENE 15 22 8 12 1021.0 1018.1 0.0
15/06:00am 16.7 15.9 16.2 97 0.3 ENE 15 20 8 11 1020.6 1017.6 0.0
15/05:30am 16.1 16.0 15.9 99 0.1 ENE 11 15 6 8 1020.4 1017.4 0.0
15/05:15am 16.1 15.6 15.9 99 0.1 ENE 13 20 7 11 1020.1 1017.2 0.0
15/05:00am 16.1 15.6 15.9 99 0.1 ENE 13 17 7 9 1019.9 1017.0 0.0
15/04:30am 16.2 15.4 16.0 99 0.1 E 15 19 8 10 1019.4 1016.4 0.0
15/04:00am 16.2 15.7 16.0 99 0.1 ENE 13 17 7 9 1019.2 1016.2 0.0
15/03:30am 16.2 15.4 16.0 99 0.1 ENE 15 19 8 10 1019.0 1016.0 0.0
15/03:11am 16.3 15.5 16.1 99 0.1 ENE 15 19 8 10 1018.8 1015.8 0.0
15/03:00am 16.2 15.4 16.0 99 0.1 E 15 20 8 11 1018.7 1015.7 0.0
15/02:30am 16.2 16.1 16.0 99 0.1 E 11 17 6 9 1018.9 1015.9 0.0
15/02:00am 16.1 15.2 15.9 99 0.1 E 15 19 8 10 1018.9 1015.9 0.0
15/01:30am 16.1 15.9 15.6 97 0.3 ENE 11 15 6 8 1019.3 1016.3 0.0
15/01:00am 16.4 15.1 15.8 96 0.4 E 17 19 9 10 1019.5 1016.5 0.0
15/12:30am 16.5 14.5 15.5 94 0.6 E 20 28 11 15 1019.7 1016.8 0.0
15/12:00am 16.8 14.9 15.3 91 0.9 E 19 24 10 13 1020.0 1017.1 0.0
 
Date/Time
EST
Temp
°C
App
Temp
°C
Dew
Point
°C
Rel
Hum
%
Delta-T
°C
Wind Press
QNH
hPa
Press
MSL
hPa
Rain since
9am
mm
Dir  Spd
km/h
Gust
km/h
Spd
kts
Gust
kts
14/11:30pm 17.2 14.7 15.2 88 1.2 E 22 30 12 16 1020.1 1017.2 0.0
14/11:00pm 17.7 15.8 15.1 85 1.6 E 19 24 10 13 1020.5 1017.5 0.0
14/10:30pm 18.3 15.8 15.2 82 1.9 E 22 32 12 17 1020.5 1017.5 0.0
14/10:00pm 18.8 15.8 14.9 78 2.3 E 24 30 13 16 1020.5 1017.5 0.0
14/09:30pm 19.2 15.5 14.9 76 2.6 E 28 33 15 18 1020.5 1017.5 0.0
14/09:00pm 19.6 15.8 14.8 74 2.9 E 28 35 15 19 1020.5 1017.5 0.0
14/08:30pm 20.2 16.8 14.8 71 3.3 E 26 33 14 18 1020.1 1017.2 0.0
14/08:00pm 20.7 17.9 14.4 67 3.8 ESE 22 28 12 15 1019.9 1017.0 0.0
14/07:30pm 21.2 18.4 13.1 60 4.8 E 20 28 11 15 1019.6 1016.7 0.0
14/07:00pm 22.1 18.7 10.6 48 6.5 E 19 33 10 18 1019.4 1016.4 0.0
14/06:30pm 22.4 19.1 8.1 40 7.8 E 15 17 8 9 1019.4 1016.4 0.0
14/06:00pm 23.6 20.2 7.7 36 8.6 E 15 19 8 10 1019.2 1016.2 0.0
14/05:30pm 24.4 21.4 7.5 34 9.2 ENE 13 17 7 9 1019.0 1016.0 0.0
14/05:00pm 24.3 20.8 7.4 34 9.1 ENE 15 20 8 11 1018.9 1015.9 0.0
14/04:30pm 24.5 21.2 8.0 35 9.0 ESE 15 20 8 11 1018.8 1015.8 0.0
14/04:00pm 25.6 22.4 8.6 34 9.4 ESE 15 20 8 11 1018.8 1015.8 0.0
14/03:30pm 25.4 22.9 9.7 37 8.9 E 13 20 7 11 1018.9 1015.9 0.0
14/03:00pm 25.2 23.6 8.7 35 9.2 ESE 7 17 4 9 1019.0 1016.0 0.0
14/02:30pm 26.2 23.2 9.1 34 9.6 ESE 15 24 8 13 1019.0 1016.0 0.0
14/02:00pm 25.3 24.4 9.2 36 9.0 S 4 11 2 6 1019.2 1016.2 0.0
14/01:30pm 24.9 23.1 9.6 38 8.6 ENE 9 19 5 10 1019.3 1016.3 0.0
14/01:00pm 23.6 21.1 9.6 41 7.8 E 13 19 7 10 1019.8 1016.9 0.0
14/12:30pm 23.9 21.1 9.9 41 7.9 E 15 26 8 14 1020.0 1017.1 0.0
14/12:00pm 25.1 22.4 11.6 42 7.9 ENE 17 28 9 15 1020.5 1017.5 0.0
14/11:30am 23.8 22.1 12.4 48 6.7 ENE 13 22 7 12 1020.9 1017.9 0.0
14/11:00am 22.4 19.8 12.1 52 6.0 ENE 17 24 9 13 1020.8 1017.8 0.0
14/10:30am 21.8 18.9 12.4 55 5.5 ENE 19 28 10 15 1020.8 1017.8 0.0
14/10:00am 22.1 20.0 13.5 58 5.1 ENE 17 24 9 13 1020.9 1017.9 0.0
14/09:30am 21.1 17.9 13.0 60 4.8 E 22 30 12 16 1021.0 1018.1 0.0
14/09:00am 20.6 18.0 13.3 63 4.3 ENE 19 28 10 15 1021.3 1018.4 0.0
14/08:30am 19.4 15.9 13.3 68 3.6 ENE 24 32 13 17 1021.3 1018.4 0.0
14/08:00am 18.1 14.7 13.6 75 2.6 ENE 24 28 13 15 1021.0 1018.1 0.0
14/07:30am 17.1 14.6 14.0 82 1.8 ENE 20 24 11 13 1020.9 1017.9 0.0
14/07:00am 16.5 13.1 13.6 83 1.7 E 24 33 13 18 1020.5 1017.5 0.0
14/06:30am 15.8 12.2 13.1 84 1.5 E 24 30 13 16 1020.1 1017.2 0.0
14/06:00am 15.3 12.4 13.0 86 1.3 E 20 24 11 13 1019.8 1016.9 0.0
14/05:30am 14.6 10.8 12.5 87 1.2 E 24 30 13 16 1019.4 1016.4 0.0
14/05:00am 14.8 11.9 12.8 88 1.1 E 20 28 11 15 1019.2 1016.2 0.0
14/04:51am 14.6 11.4 13.0 90 0.9 E 22 30 12 16 1019.1 1016.1 0.0
14/04:30am 14.9 10.5 12.9 88 1.1 E 28 35 15 19 1018.8 1015.8 0.0
14/04:00am 14.9 10.5 12.8 87 1.2 E 28 37 15 20 1018.6 1015.6 0.0
14/03:30am 14.7 10.1 12.4 86 1.3 E 28 35 15 19 1018.2 1015.3 0.0
14/03:00am 14.8 10.9 12.1 84 1.5 E 24 32 13 17 1018.2 1015.3 0.0
14/02:58am 14.8 10.9 12.1 84 1.5 E 24 32 13 17 1018.2 1015.3 0.0
14/02:30am 14.5 9.9 12.2 86 1.3 E 28 33 15 18 1018.3 1015.4 0.0
14/02:00am 14.4 10.2 12.3 87 1.2 E 26 32 14 17 1018.7 1015.7 0.0
14/01:30am 14.8 10.2 12.3 85 1.4 E 28 35 15 19 1018.8 1015.8 0.0
14/01:00am 14.8 10.3 12.5 86 1.3 E 28 37 15 20 1019.1 1016.1 0.0
14/12:30am 14.8 10.3 12.5 86 1.3 E 28 35 15 19 1019.5 1016.5 0.0
14/12:00am 15.0 10.5 12.5 85 1.4 E 28 35 15 19 1019.9 1017.0 0.0
 
Date/Time
EST
Temp
°C
App
Temp
°C
Dew
Point
°C
Rel
Hum
%
Delta-T
°C
Wind Press
QNH
hPa
Press
MSL
hPa
Rain since
9am
mm
Dir  Spd
km/h
Gust
km/h
Spd
kts
Gust
kts
13/11:30pm 15.1 11.0 12.6 85 1.4 E 26 33 14 18 1020.6 1017.6 0.0
13/11:00pm 15.2 11.0 12.5 84 1.5 E 26 35 14 19 1020.8 1017.8 0.0
13/10:30pm 15.6 10.7 12.5 82 1.8 E 30 41 16 22 1020.8 1017.8 0.0
13/10:00pm 15.9 10.8 11.9 77 2.2 E 30 35 16 19 1021.0 1018.1 0.0
13/09:30pm 16.1 10.6 11.7 75 2.5 E 32 39 17 21 1021.1 1018.2 0.0
13/09:00pm 16.6 10.7 10.5 67 3.3 E 32 39 17 21 1021.0 1018.1 0.0
13/08:30pm 17.2 11.5 9.9 62 4.0 E 30 37 16 20 1020.8 1017.8 0.0
13/08:00pm 17.7 11.8 10.3 62 4.1 E 32 39 17 21 1020.4 1017.4 0.0
13/07:30pm 18.1 13.2 11.2 64 3.9 E 28 39 15 21 1020.1 1017.2 0.0
13/07:00pm 18.7 13.9 11.5 63 4.1 E 28 37 15 20 1019.7 1016.8 0.0
13/06:30pm 19.5 14.7 11.5 60 4.5 E 28 33 15 18 1019.6 1016.7 0.0
13/06:00pm 20.4 15.9 11.3 56 5.2 E 26 35 14 19 1019.2 1016.2 0.0
13/05:30pm 21.2 16.6 11.0 52 5.8 E 26 32 14 17 1018.9 1015.9 0.0
13/05:00pm 22.4 17.3 10.5 47 6.7 ESE 28 37 15 20 1018.6 1015.6 0.0
13/04:30pm 23.2 18.6 10.9 46 7.0 E 26 37 14 20 1018.4 1015.5 0.0
13/04:00pm 23.5 19.0 9.9 42 7.6 E 24 32 13 17 1018.7 1015.7 0.0
13/03:30pm 22.9 18.3 9.7 43 7.4 E 24 33 13 18 1018.8 1015.8 0.0
13/03:00pm 24.8 20.8 10.3 40 8.3 ESE 22 37 12 20 1018.9 1015.9 0.0
13/02:30pm 25.1 21.1 10.6 40 8.3 E 22 35 12 19 1018.9 1015.9 0.0
13/02:00pm 23.3 19.3 10.4 44 7.3 E 22 35 12 19 1019.1 1016.1 0.0
13/01:30pm 25.0 20.6 10.5 40 8.3 E 24 37 13 20 1019.2 1016.2 0.0

Other Formats:

Comma delimited format used in spreadsheet applications
http://www.bom.gov.au/fwo/IDQ60801/IDQ60801.95551.axf

JavaScript Object Notation format (JSON) in row-major order
http://www.bom.gov.au/fwo/IDQ60801/IDQ60801.95551.json